Time;durP1;ratioP1;P1;durP2;ratioP2;P2;SDS_P1;SDS_P2;PMS_P1;PMS_P2;Temp;Humidity;BMP_temperature;BMP_pressure;BME280_temperature;BME280_humidity;BME280_pressure;Samples;Min_cycle;Max_cycle;Signal;HPM_P1;HPM_P2
2022/11/26 00:02:17;;;;;;;1.43;1.37;;;8.60;99.90;;;;;;5034783;28;20227;-64
2022/11/26 00:04:44;;;;;;;1.00;1.00;;;8.60;99.90;;;;;;5031440;28;20596;-64
2022/11/26 00:07:12;;;;;;;1.30;1.30;;;8.70;99.90;;;;;;5031673;28;20204;-64
2022/11/26 00:09:40;;;;;;;1.40;1.30;;;8.70;99.90;;;;;;5032069;28;20201;-64
2022/11/26 00:12:16;;;;;;;1.43;1.20;;;8.70;99.90;;;;;;5044509;28;20292;-65
2022/11/26 00:14:43;;;;;;;1.33;1.10;;;8.70;99.90;;;;;;5045616;28;20201;-65
2022/11/26 00:17:11;;;;;;;1.00;1.00;;;8.70;99.90;;;;;;5045628;28;20292;-65
2022/11/26 00:19:38;;;;;;;1.20;1.20;;;8.70;99.90;;;;;;5045342;28;20272;-63
2022/11/26 00:22:05;;;;;;;1.00;1.00;;;8.80;99.90;;;;;;5041531;28;20211;-65
2022/11/26 00:24:32;;;;;;;1.20;1.10;;;8.80;99.90;;;;;;5033148;28;20330;-64
2022/11/26 00:27:00;;;;;;;1.07;1.07;;;8.80;99.90;;;;;;5033541;28;20292;-64
2022/11/26 00:29:28;;;;;;;1.40;1.30;;;8.80;99.90;;;;;;5033420;28;20208;-66
2022/11/26 00:31:55;;;;;;;1.20;1.20;;;8.80;99.90;;;;;;5038738;28;20290;-63
2022/11/26 00:34:21;;;;;;;0.90;0.90;;;8.80;99.90;;;;;;5033465;28;20288;-64
2022/11/26 00:36:48;;;;;;;1.40;1.30;;;8.80;99.90;;;;;;5033502;28;20200;-65
2022/11/26 00:39:20;;;;;;;1.27;1.17;;;8.80;99.90;;;;;;5032992;28;20673;-64
2022/11/26 00:41:50;;;;;;;1.30;1.20;;;8.80;99.90;;;;;;5027721;28;20207;-65
2022/11/26 00:44:18;;;;;;;0.97;0.97;;;8.80;99.90;;;;;;5042903;28;20235;-66
2022/11/26 00:46:47;;;;;;;1.37;1.27;;;8.80;99.90;;;;;;5032966;28;20264;-64
2022/11/26 00:49:14;;;;;;;1.00;1.00;;;8.80;99.90;;;;;;5038851;28;20204;-64
2022/11/26 00:51:42;;;;;;;1.00;1.00;;;8.80;99.90;;;;;;5030417;28;20207;-65
2022/11/26 00:54:12;;;;;;;1.20;1.20;;;8.80;99.90;;;;;;5032479;28;20719;-65
2022/11/26 00:56:40;;;;;;;1.80;1.40;;;8.80;99.90;;;;;;5040450;28;20203;-64
2022/11/26 00:59:07;;;;;;;1.13;1.10;;;8.80;99.90;;;;;;5033546;28;20204;-65
2022/11/26 01:01:33;;;;;;;1.20;1.20;;;8.80;99.90;;;;;;5032059;28;20252;-65
2022/11/26 01:04:01;;;;;;;1.40;1.30;;;8.90;99.90;;;;;;5032335;28;20604;-64
2022/11/26 01:06:33;;;;;;;1.10;1.10;;;8.90;99.90;;;;;;5024999;28;20197;-63
2022/11/26 01:09:00;;;;;;;1.33;1.23;;;8.80;99.90;;;;;;5032696;28;20287;-65
2022/11/26 01:11:27;;;;;;;1.30;1.20;;;8.80;99.90;;;;;;5031997;28;20204;-65
2022/11/26 01:14:00;;;;;;;1.30;1.30;;;8.80;99.90;;;;;;5036097;28;20220;-65
2022/11/26 01:16:29;;;;;;;1.20;1.10;;;8.90;99.90;;;;;;5033752;28;20340;-65
2022/11/26 01:18:59;;;;;;;1.03;1.00;;;8.80;99.90;;;;;;5038386;28;20866;-66
2022/11/26 01:21:29;;;;;;;1.00;1.00;;;8.80;99.90;;;;;;5055139;28;20208;-65
2022/11/26 01:23:57;;;;;;;1.17;1.07;;;8.80;99.90;;;;;;5051246;28;20248;-65
2022/11/26 01:26:26;;;;;;;1.40;1.30;;;8.80;99.90;;;;;;5058672;28;20279;-63
2022/11/26 01:28:54;;;;;;;1.10;1.10;;;8.90;99.90;;;;;;5045975;28;20193;-64
2022/11/26 01:31:23;;;;;;;1.27;1.00;;;8.80;99.90;;;;;;5043201;28;20260;-65
2022/11/26 01:33:50;;;;;;;1.30;1.20;;;8.90;99.90;;;;;;5050154;28;20284;-65
2022/11/26 01:36:22;;;;;;;0.97;0.97;;;8.90;99.90;;;;;;5029295;28;20209;-64
2022/11/26 01:38:51;;;;;;;1.10;1.00;;;9.00;99.90;;;;;;5032350;28;20238;-63
2022/11/26 01:41:27;;;;;;;1.03;1.03;;;9.20;99.90;;;;;;5033830;28;20204;-63
2022/11/26 01:43:57;;;;;;;1.57;1.30;;;9.10;99.90;;;;;;5028515;28;20231;-63
2022/11/26 01:46:25;;;;;;;0.90;0.90;;;9.10;99.90;;;;;;5029384;28;20651;-65
2022/11/26 01:48:53;;;;;;;1.10;1.10;;;9.10;99.90;;;;;;5029040;28;20718;-62
2022/11/26 01:51:24;;;;;;;1.37;1.30;;;9.10;99.90;;;;;;5028045;28;20351;-64
2022/11/26 01:53:54;;;;;;;0.90;0.90;;;9.10;99.90;;;;;;5032114;28;20295;-66
2022/11/26 01:56:33;;;;;;;1.03;1.03;;;9.20;99.90;;;;;;5031291;28;20264;-65
2022/11/26 01:59:07;;;;;;;1.07;1.07;;;9.10;99.90;;;;;;5031248;28;20205;-63
2022/11/26 02:01:34;;;;;;;1.07;1.07;;;9.20;99.90;;;;;;5023456;28;20211;-65
2022/11/26 02:04:10;;;;;;;1.20;1.10;;;9.20;99.90;;;;;;5031341;28;20228;-64
2022/11/26 02:06:37;;;;;;;1.00;1.00;;;9.20;99.90;;;;;;5031020;28;20227;-66
2022/11/26 02:09:09;;;;;;;1.10;1.10;;;9.20;99.90;;;;;;5034699;28;20665;-64
2022/11/26 02:11:36;;;;;;;1.23;1.13;;;9.40;99.90;;;;;;5029758;28;20196;-64
2022/11/26 02:14:06;;;;;;;1.30;1.20;;;9.30;99.90;;;;;;5031489;28;20565;-63
2022/11/26 02:17:01;;;;;;;1.00;1.00;;;9.30;99.90;;;;;;5029608;28;20204;-65
2022/11/26 02:19:45;;;;;;;1.40;1.30;;;9.30;99.90;;;;;;5039148;28;20291;-64
2022/11/26 02:22:20;;;;;;;1.30;1.30;;;9.40;99.90;;;;;;5038686;28;20226;-65
2022/11/26 02:24:55;;;;;;;1.00;1.00;;;9.30;99.90;;;;;;5041036;28;20599;-65
2022/11/26 02:27:56;;;;;;;1.70;1.60;;;9.30;99.90;;;;;;5035759;28;20319;-64
2022/11/26 02:30:25;;;;;;;1.40;1.30;;;9.20;99.90;;;;;;5034671;28;20681;-64
2022/11/26 02:32:58;;;;;;;1.40;1.33;;;9.10;99.90;;;;;;5037413;28;20217;-64
2022/11/26 02:35:30;;;;;;;1.60;1.50;;;9.10;99.90;;;;;;5036108;28;20201;-63
2022/11/26 02:38:01;;;;;;;2.03;1.50;;;9.10;99.90;;;;;;5032208;28;20208;-64
2022/11/26 02:40:29;;;;;;;1.43;1.33;;;9.10;99.90;;;;;;5030719;28;20684;-64
2022/11/26 02:42:56;;;;;;;1.70;1.57;;;9.00;99.90;;;;;;5042048;28;20234;-64
2022/11/26 02:45:27;;;;;;;1.40;1.40;;;9.00;99.90;;;;;;5033998;28;20224;-64
2022/11/26 02:47:58;;;;;;;1.60;1.50;;;9.00;99.90;;;;;;5033824;28;20214;-65
2022/11/26 02:50:29;;;;;;;1.30;1.30;;;9.10;99.90;;;;;;5032398;28;20619;-65
2022/11/26 02:52:58;;;;;;;1.50;1.43;;;9.10;99.90;;;;;;5040795;28;20615;-63
2022/11/26 02:55:28;;;;;;;1.30;1.23;;;9.20;99.90;;;;;;5031266;28;20238;-65
2022/11/26 02:57:56;;;;;;;1.40;1.37;;;9.20;99.90;;;;;;5038376;28;20206;-64
2022/11/26 03:00:24;;;;;;;1.63;1.53;;;9.20;99.90;;;;;;5031076;28;20291;-63
2022/11/26 03:02:57;;;;;;;1.20;1.20;;;9.20;99.90;;;;;;5037609;28;20219;-63
2022/11/26 03:05:24;;;;;;;1.50;1.40;;;9.20;99.90;;;;;;5035484;28;20220;-63
2022/11/26 03:07:53;;;;;;;1.23;1.13;;;9.40;99.90;;;;;;5039076;28;20205;-63
2022/11/26 03:10:24;;;;;;;1.47;1.10;;;9.40;99.90;;;;;;5041804;28;20208;-63
2022/11/26 03:12:51;;;;;;;1.90;1.53;;;9.40;99.90;;;;;;5037452;28;20754;-63
2022/11/26 03:15:18;;;;;;;1.43;1.33;;;9.50;99.90;;;;;;5043262;28;20268;-64
2022/11/26 03:17:46;;;;;;;1.20;1.20;;;9.50;99.90;;;;;;5044125;28;20208;-64
2022/11/26 03:20:13;;;;;;;1.50;1.40;;;9.50;99.90;;;;;;5037937;28;20196;-65
2022/11/26 03:22:40;;;;;;;1.07;1.07;;;9.60;99.90;;;;;;5040877;28;20312;-65
2022/11/26 03:25:08;;;;;;;1.37;1.27;;;9.60;99.90;;;;;;5038985;28;20220;-65
2022/11/26 03:27:35;;;;;;;1.67;1.40;;;9.60;99.90;;;;;;5042476;28;20223;-64
2022/11/26 03:30:02;;;;;;;1.30;1.20;;;9.60;99.90;;;;;;5043722;28;20572;-64
2022/11/26 03:32:29;;;;;;;1.23;1.23;;;9.60;99.90;;;;;;5038965;28;20311;-67
2022/11/26 03:34:57;;;;;;;1.30;1.20;;;9.60;99.90;;;;;;5043172;28;20197;-63
2022/11/26 03:37:24;;;;;;;1.30;1.30;;;9.60;99.90;;;;;;5036649;28;20207;-65
2022/11/26 03:39:51;;;;;;;1.60;1.50;;;9.60;99.90;;;;;;5041069;28;20220;-63
2022/11/26 03:42:18;;;;;;;1.40;1.30;;;9.60;99.90;;;;;;5046174;28;20314;-65
2022/11/26 03:44:45;;;;;;;1.70;1.60;;;9.60;99.90;;;;;;5041679;28;20229;-64
2022/11/26 03:47:11;;;;;;;1.50;1.40;;;9.60;99.90;;;;;;5048607;28;20207;-66
2022/11/26 03:49:38;;;;;;;1.50;1.40;;;9.50;99.90;;;;;;5044115;28;20294;-66
2022/11/26 03:52:06;;;;;;;1.07;1.07;;;9.60;99.90;;;;;;5039295;28;20200;-64
2022/11/26 03:54:33;;;;;;;1.57;1.40;;;9.50;99.90;;;;;;5037945;28;20197;-65
2022/11/26 03:57:00;;;;;;;1.47;1.37;;;9.60;99.90;;;;;;5065601;28;20223;-64
2022/11/26 03:59:27;;;;;;;1.50;1.40;;;9.60;99.90;;;;;;5051005;28;20264;-64
2022/11/26 04:01:54;;;;;;;1.50;1.40;;;9.60;99.90;;;;;;5076979;28;20280;-64
2022/11/26 04:04:21;;;;;;;1.27;1.20;;;9.60;99.90;;;;;;5064207;28;20228;-64
2022/11/26 04:06:48;;;;;;;1.30;1.20;;;9.60;99.90;;;;;;5053587;28;20272;-65
2022/11/26 04:09:16;;;;;;;1.10;1.10;;;9.50;99.90;;;;;;5043875;28;20210;-65
2022/11/26 04:11:43;;;;;;;1.50;1.40;;;9.50;99.90;;;;;;5033679;28;20209;-64
2022/11/26 04:14:10;;;;;;;1.10;1.10;;;9.50;99.90;;;;;;5048283;28;20228;-65
2022/11/26 04:16:37;;;;;;;1.17;1.10;;;9.50;99.90;;;;;;5053852;28;20269;-65
2022/11/26 04:19:04;;;;;;;1.20;1.20;;;9.60;99.90;;;;;;5044522;28;20200;-65
2022/11/26 04:21:31;;;;;;;1.30;1.30;;;9.60;99.90;;;;;;5044248;28;20208;-64
2022/11/26 04:23:57;;;;;;;1.67;1.23;;;9.60;99.90;;;;;;5040891;28;20228;-63
2022/11/26 04:26:26;;;;;;;1.47;1.37;;;9.60;99.90;;;;;;5040693;28;20225;-65
2022/11/26 04:28:52;;;;;;;1.50;1.40;;;9.70;99.90;;;;;;5039997;28;20671;-65
2022/11/26 04:31:19;;;;;;;1.07;1.07;;;9.70;99.90;;;;;;5036560;28;20211;-65
2022/11/26 04:33:46;;;;;;;1.57;1.30;;;9.70;99.90;;;;;;5050335;28;20220;-65
2022/11/26 04:36:13;;;;;;;1.20;1.20;;;9.80;99.90;;;;;;5036133;28;20196;-64
2022/11/26 04:38:40;;;;;;;1.30;1.30;;;9.80;99.90;;;;;;5039678;28;20200;-65
2022/11/26 04:41:07;;;;;;;1.47;1.37;;;9.70;99.90;;;;;;5044435;28;20196;-64
2022/11/26 04:43:35;;;;;;;1.77;1.50;;;9.80;99.90;;;;;;5042152;28;20233;-66
2022/11/26 04:46:02;;;;;;;1.77;1.67;;;9.80;99.90;;;;;;5043805;28;20220;-65
2022/11/26 04:48:29;;;;;;;1.50;1.40;;;9.80;99.90;;;;;;5035054;28;20207;-66
2022/11/26 04:50:55;;;;;;;1.40;1.30;;;9.80;99.90;;;;;;5042476;28;20261;-65
2022/11/26 04:53:22;;;;;;;1.10;1.10;;;9.70;99.90;;;;;;5034338;28;20307;-64
2022/11/26 04:55:50;;;;;;;1.33;1.30;;;9.70;99.90;;;;;;5037504;28;20287;-65
2022/11/26 04:58:17;;;;;;;1.10;1.10;;;9.70;99.90;;;;;;5041897;28;20215;-65
2022/11/26 05:00:46;;;;;;;1.33;1.33;;;9.70;99.90;;;;;;5037332;28;20208;-66
2022/11/26 05:03:13;;;;;;;1.30;1.20;;;9.70;99.90;;;;;;5050376;28;21016;-62
2022/11/26 05:05:40;;;;;;;1.60;1.50;;;9.70;99.90;;;;;;5036141;28;20270;-64
2022/11/26 05:08:07;;;;;;;1.33;1.30;;;9.60;99.90;;;;;;5042444;28;20204;-65
2022/11/26 05:10:34;;;;;;;1.53;1.43;;;9.70;99.90;;;;;;5031754;28;20760;-65
2022/11/26 05:13:01;;;;;;;1.60;1.50;;;9.60;99.90;;;;;;5041306;28;20216;-64
2022/11/26 05:15:28;;;;;;;1.70;1.60;;;9.60;99.90;;;;;;5040526;28;20208;-65
2022/11/26 05:17:56;;;;;;;1.53;1.43;;;9.50;99.90;;;;;;5039026;28;20295;-66
2022/11/26 05:20:23;;;;;;;1.70;1.60;;;9.50;99.90;;;;;;5032716;28;20242;-65
2022/11/26 05:22:49;;;;;;;1.50;1.40;;;9.50;99.90;;;;;;5036421;28;20216;-66
2022/11/26 05:25:16;;;;;;;1.50;1.40;;;9.50;99.90;;;;;;5039981;28;20381;-65
2022/11/26 05:27:43;;;;;;;1.50;1.40;;;9.50;99.90;;;;;;5036695;28;20296;-65
2022/11/26 05:30:11;;;;;;;1.40;1.30;;;9.50;99.90;;;;;;5041108;28;20286;-65
2022/11/26 05:32:38;;;;;;;1.73;1.63;;;9.50;99.90;;;;;;5035738;28;20304;-66
2022/11/26 05:35:07;;;;;;;1.70;1.60;;;9.50;99.90;;;;;;5039394;28;20610;-65
2022/11/26 05:37:34;;;;;;;1.50;1.40;;;9.50;99.90;;;;;;5035378;28;20283;-65
2022/11/26 05:40:00;;;;;;;1.60;1.50;;;9.60;99.90;;;;;;5037786;28;20211;-63
2022/11/26 05:42:27;;;;;;;1.60;1.50;;;9.50;99.90;;;;;;5034240;28;20258;-64
2022/11/26 05:44:54;;;;;;;1.73;1.63;;;9.50;99.90;;;;;;5037643;28;20224;-64
2022/11/26 05:47:21;;;;;;;1.33;1.33;;;9.50;99.90;;;;;;5041979;28;20207;-65
2022/11/26 05:49:48;;;;;;;1.30;1.30;;;9.50;99.90;;;;;;5040017;28;20296;-65
2022/11/26 05:52:16;;;;;;;1.50;1.40;;;9.50;99.90;;;;;;5045727;28;20235;-65
2022/11/26 05:54:43;;;;;;;1.23;1.20;;;9.50;99.90;;;;;;5041410;28;20204;-65
2022/11/26 05:57:10;;;;;;;1.47;1.37;;;9.50;99.90;;;;;;5039201;28;20288;-64
2022/11/26 05:59:37;;;;;;;1.23;1.23;;;9.50;99.90;;;;;;5040988;28;20571;-65
2022/11/26 06:02:04;;;;;;;1.30;1.30;;;9.50;99.90;;;;;;5031858;28;20211;-64
2022/11/26 06:04:31;;;;;;;1.53;1.43;;;9.50;99.90;;;;;;5040675;28;20292;-65
2022/11/26 06:06:57;;;;;;;1.50;1.40;;;9.60;99.90;;;;;;5036068;28;20320;-64
2022/11/26 06:09:26;;;;;;;1.50;1.40;;;9.60;99.90;;;;;;5039042;28;20216;-65
2022/11/26 06:11:53;;;;;;;1.50;1.40;;;9.60;99.90;;;;;;5034356;28;20226;-64
2022/11/26 06:14:20;;;;;;;1.90;1.50;;;9.60;99.90;;;;;;5039958;28;20215;-64
2022/11/26 06:16:46;;;;;;;1.73;1.63;;;9.50;99.90;;;;;;5037385;28;20215;-64
2022/11/26 06:19:13;;;;;;;1.60;1.50;;;9.40;99.90;;;;;;5032915;28;20197;-65
2022/11/26 06:21:40;;;;;;;1.50;1.40;;;9.40;99.90;;;;;;5038754;28;20315;-65
2022/11/26 06:24:07;;;;;;;1.73;1.63;;;9.50;99.90;;;;;;5035486;28;20319;-64
2022/11/26 06:26:35;;;;;;;1.73;1.63;;;9.50;99.90;;;;;;5044788;28;20219;-65
2022/11/26 06:29:03;;;;;;;1.70;1.60;;;9.40;99.90;;;;;;5040159;28;20661;-65
2022/11/26 06:31:31;;;;;;;1.73;1.63;;;9.40;99.90;;;;;;5038305;28;20197;-63
2022/11/26 06:33:58;;;;;;;1.50;1.40;;;9.40;99.90;;;;;;5039760;28;20224;-66
2022/11/26 06:36:25;;;;;;;1.60;1.50;;;9.40;99.90;;;;;;5032772;28;20300;-65
2022/11/26 06:38:52;;;;;;;1.80;1.70;;;9.50;99.90;;;;;;5042049;28;20206;-64
2022/11/26 06:41:18;;;;;;;1.13;1.13;;;9.50;99.90;;;;;;5046233;28;20638;-64
2022/11/26 06:43:47;;;;;;;1.43;1.33;;;9.50;99.90;;;;;;5041286;28;20232;-64
2022/11/26 06:46:13;;;;;;;1.60;1.50;;;9.60;99.90;;;;;;5037246;28;20230;-65
2022/11/26 06:48:40;;;;;;;1.40;1.30;;;9.60;99.90;;;;;;5030144;28;20193;-65
2022/11/26 06:51:09;;;;;;;1.47;1.37;;;9.50;99.90;;;;;;5041030;28;20579;-65
2022/11/26 06:53:36;;;;;;;1.83;1.73;;;9.60;99.90;;;;;;5042285;28;20220;-65
2022/11/26 06:56:04;;;;;;;1.87;1.77;;;9.50;99.90;;;;;;5040923;28;20228;-64
2022/11/26 06:58:31;;;;;;;2.47;2.27;;;9.40;99.90;;;;;;5041892;28;20292;-64
2022/11/26 07:00:59;;;;;;;2.40;2.20;;;9.30;99.90;;;;;;5044963;28;20687;-65
2022/11/26 07:03:27;;;;;;;2.20;2.10;;;9.20;99.90;;;;;;5039927;28;20639;-65
2022/11/26 07:05:54;;;;;;;2.43;2.23;;;9.10;99.90;;;;;;5043941;28;20331;-65
2022/11/26 07:08:20;;;;;;;2.47;2.23;;;9.10;99.90;;;;;;5038986;28;20312;-63
2022/11/26 07:10:47;;;;;;;2.80;2.60;;;9.10;99.90;;;;;;5040978;28;20231;-64
2022/11/26 07:13:14;;;;;;;1.93;1.83;;;9.10;99.90;;;;;;5047564;28;20219;-64
2022/11/26 07:15:41;;;;;;;2.00;1.90;;;9.10;99.90;;;;;;5040444;28;20653;-65
2022/11/26 07:18:09;;;;;;;2.17;2.07;;;9.10;99.90;;;;;;5045011;28;20200;-64
2022/11/26 07:20:36;;;;;;;2.40;2.20;;;9.10;99.90;;;;;;5038736;28;20197;-64
2022/11/26 07:23:03;;;;;;;2.33;2.17;;;9.10;99.90;;;;;;5043275;28;20249;-65
2022/11/26 07:25:30;;;;;;;3.10;2.60;;;9.10;99.90;;;;;;5040350;28;20221;-65
2022/11/26 07:27:58;;;;;;;2.40;2.27;;;9.10;99.90;;;;;;5045176;28;20232;-64
2022/11/26 07:30:25;;;;;;;2.83;2.63;;;9.20;99.90;;;;;;5037305;28;20200;-64
2022/11/26 07:32:52;;;;;;;2.40;2.20;;;9.30;99.90;;;;;;5040320;28;20231;-65
2022/11/26 07:35:20;;;;;;;2.27;2.10;;;9.30;99.90;;;;;;5036585;28;20296;-64
2022/11/26 07:37:47;;;;;;;2.67;2.17;;;9.30;99.90;;;;;;5038240;28;20240;-65
2022/11/26 07:40:15;;;;;;;2.27;2.13;;;9.30;99.90;;;;;;5041433;28;20212;-64
2022/11/26 07:42:42;;;;;;;2.60;2.40;;;9.30;99.90;;;;;;5036736;28;20224;-65
2022/11/26 07:45:09;;;;;;;2.57;2.37;;;9.40;99.90;;;;;;5043464;28;20201;-64
2022/11/26 07:47:36;;;;;;;2.73;2.53;;;9.40;99.90;;;;;;5042268;28;20239;-65
2022/11/26 07:50:03;;;;;;;2.67;2.47;;;9.30;99.90;;;;;;5038487;28;20287;-65
2022/11/26 07:52:31;;;;;;;2.47;2.27;;;9.30;99.90;;;;;;5045329;28;20227;-64
2022/11/26 07:54:58;;;;;;;2.53;2.37;;;9.20;99.90;;;;;;5046356;28;20697;-65
2022/11/26 07:57:25;;;;;;;2.57;2.47;;;9.20;99.90;;;;;;5039551;28;20199;-64
2022/11/26 07:59:52;;;;;;;2.90;2.60;;;9.30;99.90;;;;;;5041015;28;20558;-64
2022/11/26 08:02:19;;;;;;;2.33;2.23;;;9.30;99.90;;;;;;5040815;28;20225;-64
2022/11/26 08:04:45;;;;;;;3.03;2.73;;;9.30;99.90;;;;;;5050174;28;20208;-65
2022/11/26 08:07:12;;;;;;;2.67;2.47;;;9.30;99.90;;;;;;5049689;28;20224;-65
2022/11/26 08:09:40;;;;;;;2.90;2.60;;;9.30;99.90;;;;;;5039704;28;20268;-66
2022/11/26 08:12:09;;;;;;;2.70;2.50;;;9.30;99.90;;;;;;5039114;28;20230;-66
2022/11/26 08:14:36;;;;;;;2.93;2.73;;;9.50;99.90;;;;;;5042232;28;20241;-64
2022/11/26 08:17:03;;;;;;;2.73;2.53;;;9.70;99.90;;;;;;5039187;28;20196;-64
2022/11/26 08:19:30;;;;;;;2.80;2.60;;;9.80;99.90;;;;;;5045321;28;20271;-65
2022/11/26 08:21:56;;;;;;;2.77;2.57;;;9.90;99.90;;;;;;5037114;28;20288;-65
2022/11/26 08:24:23;;;;;;;3.00;2.73;;;9.90;99.90;;;;;;5040536;28;20211;-64
2022/11/26 08:26:51;;;;;;;3.00;2.80;;;9.80;99.90;;;;;;5039278;28;20223;-65
2022/11/26 08:29:18;;;;;;;2.67;2.47;;;9.80;99.90;;;;;;5036987;28;20201;-62
2022/11/26 08:31:45;;;;;;;2.80;2.60;;;9.80;99.90;;;;;;5043278;28;20246;-63
2022/11/26 08:34:14;;;;;;;2.77;2.57;;;9.90;99.90;;;;;;5043276;28;20624;-64
2022/11/26 08:36:41;;;;;;;2.77;2.57;;;10.00;99.90;;;;;;5035701;28;20193;-63
2022/11/26 08:39:08;;;;;;;2.70;2.50;;;10.20;99.90;;;;;;5042167;28;20200;-66
2022/11/26 08:41:35;;;;;;;2.73;2.53;;;10.30;99.90;;;;;;5033185;28;20318;-66
2022/11/26 08:44:03;;;;;;;2.83;2.63;;;10.10;99.90;;;;;;5041501;28;20235;-65
2022/11/26 08:46:30;;;;;;;2.90;2.70;;;10.00;99.90;;;;;;5042173;28;20229;-65
2022/11/26 08:48:57;;;;;;;3.20;2.90;;;9.80;99.90;;;;;;5035180;28;20205;-65
2022/11/26 08:51:25;;;;;;;4.67;3.40;;;9.70;99.90;;;;;;5032710;28;20658;-64
2022/11/26 08:53:52;;;;;;;3.50;2.90;;;9.70;99.90;;;;;;5037090;28;20311;-65
2022/11/26 08:56:19;;;;;;;3.10;2.90;;;9.60;99.90;;;;;;5037592;28;20292;-66
2022/11/26 08:58:47;;;;;;;3.57;3.27;;;9.60;99.90;;;;;;5039851;28;20236;-65
2022/11/26 09:01:18;;;;;;;3.57;3.07;;;9.50;99.90;;;;;;5040494;28;20204;-65
2022/11/26 09:03:47;;;;;;;2.90;2.70;;;9.50;99.90;;;;;;5037462;28;20263;-66
2022/11/26 09:06:14;;;;;;;3.13;2.83;;;9.40;99.90;;;;;;5036342;28;20219;-65
2022/11/26 09:09:11;;;;;;;3.53;3.20;;;9.50;99.90;;;;;;5040150;28;20611;-64
2022/11/26 09:11:33;;;;;;;3.30;2.87;;;9.70;99.90;;;;;;5039669;28;20215;-63
2022/11/26 09:14:00;;;;;;;3.30;2.93;;;9.60;99.90;;;;;;5042818;28;20216;-65
2022/11/26 09:16:29;;;;;;;3.20;2.90;;;9.70;99.90;;;;;;5035969;28;20653;-65
2022/11/26 09:18:56;;;;;;;3.00;2.80;;;9.90;99.90;;;;;;5037241;28;20303;-64
2022/11/26 09:21:23;;;;;;;3.10;2.90;;;10.00;99.90;;;;;;5029437;28;20197;-65
2022/11/26 09:23:51;;;;;;;3.57;3.27;;;9.90;99.90;;;;;;5031362;28;20243;-65
2022/11/26 09:26:20;;;;;;;3.10;2.90;;;9.90;99.90;;;;;;5030007;28;20241;-64
2022/11/26 09:28:47;;;;;;;3.27;3.00;;;9.80;99.90;;;;;;5030147;28;20235;-64
2022/11/26 09:31:14;;;;;;;3.87;3.50;;;9.80;99.90;;;;;;5028806;28;20196;-64
2022/11/26 09:33:42;;;;;;;3.37;3.10;;;9.90;99.90;;;;;;5024933;28;20320;-65
2022/11/26 09:36:11;;;;;;;3.30;3.10;;;9.90;99.90;;;;;;5031514;28;20522;-66
2022/11/26 09:38:38;;;;;;;3.03;2.83;;;9.90;99.90;;;;;;5031206;28;20267;-65
2022/11/26 09:41:13;;;;;;;3.20;2.90;;;10.00;99.90;;;;;;5031827;28;20201;-65
2022/11/26 09:43:54;;;;;;;3.23;3.03;;;10.10;99.90;;;;;;5031861;28;20322;-69
2022/11/26 09:46:28;;;;;;;3.17;2.87;;;10.20;99.90;;;;;;5031365;28;20684;-64
2022/11/26 09:49:00;;;;;;;2.80;2.60;;;10.30;99.90;;;;;;5031833;28;20232;-63
2022/11/26 09:51:28;;;;;;;3.47;3.23;;;10.40;99.90;;;;;;5030815;28;20196;-64
2022/11/26 09:53:56;;;;;;;3.40;3.10;;;10.40;99.90;;;;;;5025336;28;20415;-63
2022/11/26 09:56:26;;;;;;;2.97;2.77;;;10.50;99.90;;;;;;5027614;28;20197;-64
2022/11/26 09:58:56;;;;;;;2.93;2.73;;;10.50;99.90;;;;;;5031038;28;20239;-66
2022/11/26 10:01:24;;;;;;;3.67;3.17;;;10.50;99.90;;;;;;5026336;28;20209;-65
2022/11/26 10:03:52;;;;;;;3.03;2.83;;;10.50;99.90;;;;;;5028915;28;20222;-64
2022/11/26 10:06:34;;;;;;;3.33;3.00;;;10.60;99.90;;;;;;5030925;28;20664;-66
2022/11/26 10:09:31;;;;;;;3.43;3.07;;;10.70;99.90;;;;;;5029501;28;20212;-65
2022/11/26 10:12:06;;;;;;;3.93;3.63;;;10.50;99.90;;;;;;5031037;28;20299;-63
2022/11/26 10:14:47;;;;;;;3.50;3.20;;;10.50;99.90;;;;;;5032017;28;20587;-65
2022/11/26 10:17:29;;;;;;;3.17;2.97;;;10.50;99.90;;;;;;5024164;28;20201;-66
2022/11/26 10:20:14;;;;;;;3.60;3.30;;;10.60;99.90;;;;;;5028764;28;20227;-64
2022/11/26 10:22:52;;;;;;;3.40;3.10;;;10.80;99.90;;;;;;5026313;28;20220;-64
2022/11/26 10:25:21;;;;;;;3.20;3.00;;;10.90;99.90;;;;;;5033855;28;20216;-66
2022/11/26 10:27:49;;;;;;;3.20;2.90;;;11.00;99.90;;;;;;5033301;28;20603;-66
2022/11/26 10:30:20;;;;;;;4.00;3.70;;;11.10;99.90;;;;;;5035461;28;20205;-64
2022/11/26 10:32:50;;;;;;;3.10;2.90;;;11.20;99.90;;;;;;5032584;28;20751;-65
2022/11/26 10:35:20;;;;;;;3.73;3.40;;;11.10;99.90;;;;;;5046223;22;20242;-66
2022/11/26 10:37:49;;;;;;;3.67;3.33;;;11.00;99.90;;;;;;5025958;28;20201;-65
2022/11/26 10:40:20;;;;;;;2.60;2.40;;;11.00;99.90;;;;;;5029812;28;20667;-64
2022/11/26 10:43:00;;;;;;;2.90;2.70;;;11.00;99.90;;;;;;5029728;28;20216;-65
2022/11/26 10:45:36;;;;;;;2.77;2.57;;;11.00;99.90;;;;;;5026420;28;20339;-65
2022/11/26 10:48:16;;;;;;;2.60;2.40;;;11.00;99.90;;;;;;5029539;28;20231;-65
2022/11/26 10:50:54;;;;;;;2.60;2.40;;;11.00;99.90;;;;;;5029295;28;20206;-65
2022/11/26 10:53:24;;;;;;;1.93;1.83;;;11.00;99.90;;;;;;5030205;28;20208;-65
2022/11/26 10:55:53;;;;;;;2.30;2.07;;;11.00;99.90;;;;;;5027990;28;20220;-65
2022/11/26 10:58:23;;;;;;;1.70;1.60;;;11.10;99.90;;;;;;5030604;28;20201;-64
2022/11/26 11:01:08;;;;;;;1.70;1.60;;;11.10;99.90;;;;;;5030710;28;20236;-65
2022/11/26 11:03:39;;;;;;;1.70;1.57;;;11.20;99.90;;;;;;5025376;28;20225;-65
2022/11/26 11:06:38;;;;;;;1.73;1.63;;;11.50;99.90;;;;;;5033633;28;20224;-65
2022/11/26 11:09:24;;;;;;;1.60;1.50;;;11.40;99.90;;;;;;5021846;28;20728;-66
2022/11/26 11:12:19;;;;;;;1.50;1.40;;;11.40;99.90;;;;;;5033216;28;20675;-63
2022/11/26 11:14:46;;;;;;;1.57;1.47;;;11.40;99.90;;;;;;5034420;28;20250;-65
2022/11/26 11:17:31;;;;;;;1.40;1.30;;;11.60;99.90;;;;;;5033264;28;20205;-66
2022/11/26 11:19:59;;;;;;;1.07;1.07;;;11.60;99.90;;;;;;5031913;28;20784;-66
2022/11/26 11:22:27;;;;;;;1.40;1.30;;;11.60;99.90;;;;;;5023164;28;20633;-64
2022/11/26 11:24:58;;;;;;;1.50;1.40;;;11.70;99.90;;;;;;5034030;28;20235;-64
2022/11/26 11:27:27;;;;;;;1.30;1.20;;;11.90;99.90;;;;;;5039427;28;20222;-64
2022/11/26 11:30:00;;;;;;;1.73;1.63;;;11.90;99.90;;;;;;5038629;28;20234;-66
2022/11/26 11:32:34;;;;;;;1.67;1.57;;;12.00;99.90;;;;;;5035904;28;20204;-65
2022/11/26 11:35:23;;;;;;;1.87;1.70;;;12.00;99.90;;;;;;5035969;28;20307;-64
2022/11/26 11:37:52;;;;;;;1.50;1.40;;;12.10;99.90;;;;;;5022314;28;20196;-66
2022/11/26 11:40:26;;;;;;;1.67;1.57;;;12.10;99.90;;;;;;5026207;28;20277;-65
2022/11/26 11:42:55;;;;;;;1.90;1.80;;;12.10;99.90;;;;;;5027145;28;20660;-66
2022/11/26 11:45:28;;;;;;;2.60;1.97;;;12.00;99.90;;;;;;5025013;28;20230;-64
2022/11/26 11:47:57;;;;;;;1.20;1.20;;;12.00;99.90;;;;;;5027173;28;20220;-66
2022/11/26 11:50:31;;;;;;;1.63;1.53;;;12.00;99.90;;;;;;5024920;28;20204;-65
2022/11/26 11:53:24;;;;;;;1.50;1.40;;;12.00;99.90;;;;;;5024841;28;20637;-64
2022/11/26 11:56:03;;;;;;;1.10;1.10;;;12.00;99.90;;;;;;5017559;28;20223;-64
2022/11/26 11:59:02;;;;;;;1.43;1.33;;;12.00;99.90;;;;;;5017544;28;20696;-65
2022/11/26 12:01:48;;;;;;;1.70;1.57;;;12.00;99.90;;;;;;4983150;28;20301;-64
2022/11/26 12:04:24;;;;;;;1.73;1.60;;;12.00;99.90;;;;;;5034454;28;20233;-65
2022/11/26 12:07:09;;;;;;;1.77;1.67;;;12.00;99.90;;;;;;5032643;28;20228;-65
2022/11/26 12:09:44;;;;;;;1.57;1.47;;;12.00;99.90;;;;;;5023030;28;20339;-64
2022/11/26 12:12:20;;;;;;;1.40;1.30;;;12.00;99.90;;;;;;5016829;28;20205;-65
2022/11/26 12:14:51;;;;;;;1.37;1.30;;;12.00;99.90;;;;;;5014640;28;20648;-65
2022/11/26 12:17:27;;;;;;;1.47;1.37;;;12.00;99.90;;;;;;5018316;28;20197;-64
2022/11/26 12:19:59;;;;;;;1.40;1.30;;;12.00;99.90;;;;;;5020380;28;20268;-66
2022/11/26 12:22:31;;;;;;;1.53;1.43;;;12.00;99.90;;;;;;5021978;28;20288;-64
2022/11/26 12:25:04;;;;;;;1.20;1.20;;;12.00;99.90;;;;;;5026004;28;20225;-64
2022/11/26 12:27:37;;;;;;;1.17;1.07;;;12.10;99.90;;;;;;5019678;28;20221;-64
2022/11/26 12:30:08;;;;;;;1.20;1.10;;;12.10;99.90;;;;;;5024657;28;20225;-64
2022/11/26 12:32:40;;;;;;;1.37;1.27;;;12.10;99.90;;;;;;5025211;28;20205;-64
2022/11/26 12:35:13;;;;;;;2.00;1.50;;;12.10;99.90;;;;;;5016806;28;20293;-65
2022/11/26 12:37:41;;;;;;;1.20;1.20;;;12.10;99.90;;;;;;5033751;28;20287;-66
2022/11/26 12:40:19;;;;;;;1.13;1.13;;;12.20;99.90;;;;;;5044952;28;20201;-65
2022/11/26 12:42:55;;;;;;;1.43;1.33;;;12.30;99.90;;;;;;5033204;28;20204;-64
2022/11/26 12:45:48;;;;;;;1.40;1.30;;;12.20;99.90;;;;;;5026547;28;20636;-64
2022/11/26 12:48:24;;;;;;;1.50;1.40;;;12.20;99.90;;;;;;5033419;28;20340;-64
2022/11/26 12:50:55;;;;;;;1.40;1.30;;;12.20;99.90;;;;;;5028506;28;20201;-64
2022/11/26 12:53:33;;;;;;;1.27;1.17;;;12.20;99.90;;;;;;5033170;28;20208;-65
2022/11/26 12:56:09;;;;;;;1.30;1.20;;;12.10;99.90;;;;;;5029727;28;20266;-66
2022/11/26 12:58:47;;;;;;;1.30;1.20;;;12.10;99.90;;;;;;5032557;28;20279;-66
2022/11/26 13:01:14;;;;;;;1.93;1.57;;;12.20;99.90;;;;;;5039131;28;20211;-66
2022/11/26 13:03:41;;;;;;;1.40;1.30;;;12.20;99.90;;;;;;5033442;28;20229;-65
2022/11/26 13:06:20;;;;;;;1.47;1.37;;;12.30;99.90;;;;;;5047592;28;20284;-64
2022/11/26 13:08:56;;;;;;;2.40;1.63;;;12.20;99.90;;;;;;5040085;28;20222;-64
2022/11/26 13:11:36;;;;;;;1.57;1.40;;;12.10;99.90;;;;;;5035566;28;20207;-65